Авиаторы и их друзья

79 091 подписчик

Свежие комментарии

  • Сергей Цыбин
    Про В. М. Мясищева. Незаслуженно забыли две его заключительные работы. Первая: высотный исследовательский самолет М-5...Этот день в авиац...
  • Александр Гусев
    "...испытательном полете на Ту-16... перегрузка достигала 4,2g. В этих условиях не выдержали замки подвески... стоек ...Этот день в авиац...
  • Господин Никто
    Большое спасибо за интересные материалы, Семён !Этот день в авиац...

Очередная посадка на рулежную дорожку. Airbus A320-200. Китай.

События - Новость дня
Очередная посадка на рулежную дорожку. Airbus A320-200. Китай.

17 июня экипаж самолета Airbus A320-200 авиакомпании China Eastern Airlines выполнял рейс из Наньчана в Наньнин (Китай). Экипаж производил заход по ВОР/ДМЕ на ВПП 05 аэропорт Наньнин. В 10.45 (02.45 UTC) после получения разрешения на посадку на ВПП 05 экипаж произвел посадку на параллельную РД севернее ВПП. Воздушное судно благополучно завершило пробег и зарулило на перрон.  Экипаж был отстранен от полетов, самолет – от эксплуатации. Для продолжения рейса в Наньнин был направлен резервный Airbus A320-200,  который выполнил следующий участок маршрута – в Сингапур.
Новая ВПП в аэропорту Наньнин была сдана в эксплуатацию в 2008 г. Старая ВПП размерами 2400х45 м была перепрофилирована в РД А.

Сводка МЕТАР по аэродрому Наньнин:

ZGNN 170400Z 36002MPS 290V080 9999 SCT030 BKN040 32/24 Q1004 NOSIG
ZGNN 170300Z VRB01MPS 9999 SCT023 32/24 Q1005 NOSIG 
ZGNN 170200Z VRB02MPS CAVOK 30/24 Q1004 NOSIG 
ZGNN 170100Z 02002MPS 360V070 CAVOK 29/23 Q1004 NOSIG

Очередная посадка на рулежную дорожку. Airbus A320-200. Китай.

Схема аэродрома (AIP China)

Картина дня

наверх